createdAt,value
2019-03-05T00:00:46.497Z,53.26
2019-03-05T00:03:15.966Z,53.32
2019-03-05T00:05:43.907Z,53.44
2019-03-05T00:08:11.403Z,53.49
2019-03-05T00:10:39.060Z,53.55
2019-03-05T00:13:11.518Z,53.58
2019-03-05T00:15:39.148Z,53.57
2019-03-05T00:18:06.834Z,53.57
2019-03-05T00:20:34.526Z,53.65
2019-03-05T00:23:03.422Z,53.70
2019-03-05T00:25:32.714Z,53.72
2019-03-05T00:28:05.810Z,53.74
2019-03-05T00:30:53.878Z,53.77
2019-03-05T00:34:01.544Z,53.76
2019-03-05T00:36:58.586Z,53.74
2019-03-05T00:40:01.574Z,53.70
2019-03-05T00:43:12.012Z,53.71
2019-03-05T00:46:34.660Z,53.75
2019-03-05T00:50:00.700Z,53.72
2019-03-05T00:53:02.111Z,53.75
2019-03-05T00:56:10.475Z,53.75
2019-03-05T00:59:18.427Z,53.74
2019-03-05T01:02:45.277Z,53.71
2019-03-05T01:05:35.459Z,53.74
2019-03-05T01:08:03.714Z,53.67
2019-03-05T01:10:31.620Z,53.71
2019-03-05T01:13:00.450Z,53.70
2019-03-05T01:15:29.329Z,53.72
2019-03-05T01:17:57.258Z,53.73
2019-03-05T01:20:27.337Z,53.73
2019-03-05T01:22:59.512Z,53.76
2019-03-05T01:25:31.259Z,53.75
2019-03-05T01:27:59.312Z,53.77
2019-03-05T01:30:36.951Z,53.76
2019-03-05T01:33:09.628Z,53.78
2019-03-05T01:35:48.493Z,53.79
2019-03-05T01:38:22.234Z,53.78
2019-03-05T01:41:01.560Z,53.81
2019-03-05T01:43:37.111Z,53.82
2019-03-05T01:46:08.101Z,53.85
2019-03-05T01:48:36.598Z,53.85
2019-03-05T01:51:10.348Z,53.84
2019-03-05T01:53:40.603Z,53.88
2019-03-05T01:56:14.313Z,53.92
2019-03-05T01:59:04.840Z,53.96
2019-03-05T02:01:40.741Z,54.03
2019-03-05T02:04:33.257Z,54.08
2019-03-05T02:07:13.317Z,54.10
2019-03-05T02:09:47.072Z,54.11
2019-03-05T02:12:17.882Z,54.11
2019-03-05T02:14:45.312Z,54.15
2019-03-05T02:17:13.691Z,54.18
2019-03-05T02:19:49.226Z,54.20
2019-03-05T02:22:40.180Z,54.23
2019-03-05T02:25:39.141Z,54.22
2019-03-05T02:29:03.940Z,54.24
2019-03-05T02:32:46.986Z,54.18
2019-03-05T02:35:44.245Z,54.19
2019-03-05T02:39:38.611Z,54.16
2019-03-05T02:42:43.566Z,54.25
2019-03-05T02:46:28.774Z,54.19
2019-03-05T02:50:14.533Z,54.22
2019-03-05T02:52:54.526Z,54.19
2019-03-05T02:56:07.936Z,54.22
2019-03-05T02:58:34.315Z,54.32
2019-03-05T03:01:13.053Z,54.38
2019-03-05T03:03:43.937Z,54.46
2019-03-05T03:06:15.428Z,54.47
2019-03-05T03:08:43.747Z,54.49
2019-03-05T03:11:11.369Z,54.52
2019-03-05T03:13:39.042Z,54.56
2019-03-05T03:16:06.724Z,54.56
2019-03-05T03:18:34.221Z,54.60
2019-03-05T03:21:02.017Z,54.67
2019-03-05T03:23:30.680Z,54.73
2019-03-05T03:25:58.300Z,54.76
2019-03-05T03:28:25.999Z,54.77
2019-03-05T03:30:53.887Z,54.78
2019-03-05T03:33:21.910Z,54.82
2019-03-05T03:35:53.107Z,54.86
2019-03-05T03:38:20.918Z,54.86
2019-03-05T03:40:49.729Z,54.85
2019-03-05T03:43:17.645Z,54.81
2019-03-05T03:45:45.616Z,54.83
2019-03-05T03:48:13.464Z,54.88
2019-03-05T03:50:41.315Z,54.89
2019-03-05T03:53:09.068Z,54.89
2019-03-05T05:54:01.475Z,55.04
2019-03-05T05:56:29.825Z,55.01
2019-03-05T05:58:58.995Z,55.07
2019-03-05T06:01:28.368Z,55.13
2019-03-05T06:03:56.519Z,55.11
2019-03-05T06:06:24.575Z,55.13
2019-03-05T06:08:53.110Z,55.14
2019-03-05T06:11:21.199Z,55.11
2019-03-05T06:13:49.282Z,55.11
2019-03-05T06:16:17.324Z,55.13
2019-03-05T06:18:46.621Z,55.14
2019-03-05T06:21:14.675Z,55.16
2019-03-05T06:23:42.748Z,55.17
2019-03-05T06:26:10.833Z,55.18
2019-03-05T06:28:38.909Z,55.18
2019-03-05T06:31:07.069Z,55.20
2019-03-05T06:33:36.353Z,55.22
2019-03-05T06:36:05.713Z,55.24
2019-03-05T06:38:35.493Z,55.22
2019-03-05T06:41:04.782Z,55.22
2019-03-05T06:43:38.892Z,55.22
2019-03-05T06:46:06.950Z,55.23
2019-03-05T06:48:35.013Z,55.29
2019-03-05T06:51:03.128Z,55.37
2019-03-05T06:53:31.229Z,55.37
2019-03-05T06:55:59.341Z,55.35
2019-03-05T06:58:27.431Z,55.34
2019-03-05T07:00:57.113Z,55.34
2019-03-05T07:03:25.136Z,55.33
2019-03-05T07:06:48.260Z,55.36
2019-03-05T07:10:21.718Z,55.42
2019-03-05T07:13:03.471Z,55.37
2019-03-05T07:16:36.989Z,55.43
2019-03-05T07:19:36.964Z,55.49
2019-03-05T07:22:56.159Z,55.47
2019-03-05T07:25:25.184Z,55.50
2019-03-05T07:27:57.051Z,55.52
2019-03-05T07:30:26.187Z,55.60
2019-03-05T07:32:56.421Z,55.61
2019-03-05T07:35:25.365Z,55.65
2019-03-05T07:37:53.656Z,55.70
2019-03-05T07:40:21.715Z,55.75
2019-03-05T07:42:51.072Z,55.75
2019-03-05T07:45:19.142Z,55.70
2019-03-05T07:47:47.211Z,55.70
2019-03-05T07:50:15.256Z,55.64
2019-03-05T07:52:43.417Z,55.64
2019-03-05T07:55:14.533Z,55.62
2019-03-05T07:57:42.752Z,55.64
2019-03-05T08:00:21.306Z,55.62
2019-03-05T08:02:49.380Z,55.62
2019-03-05T08:05:17.752Z,55.61
2019-03-05T08:07:46.269Z,55.57
2019-03-05T08:10:30.092Z,55.58
2019-03-05T08:13:23.259Z,55.55
2019-03-05T08:16:08.133Z,55.52
2019-03-05T08:18:36.173Z,55.48
2019-03-05T08:21:04.967Z,55.45
2019-03-05T08:23:34.577Z,55.42
2019-03-05T08:26:02.615Z,55.42
2019-03-05T08:28:30.715Z,55.42
2019-03-05T08:30:58.736Z,55.38
2019-03-05T08:33:28.877Z,55.34
2019-03-05T08:35:56.927Z,55.28
2019-03-05T08:38:25.125Z,55.24
2019-03-05T08:40:55.960Z,55.23
2019-03-05T08:43:24.178Z,55.21
2019-03-05T08:45:52.523Z,55.22
2019-03-05T08:48:20.638Z,55.19
2019-03-05T08:50:48.691Z,55.18
2019-03-05T08:53:16.777Z,55.14
2019-03-05T08:55:44.817Z,55.14
2019-03-05T08:58:12.962Z,55.07
2019-03-05T09:00:41.000Z,54.99
2019-03-05T09:03:09.215Z,54.99
2019-03-05T09:05:37.396Z,54.98
2019-03-05T09:08:05.551Z,54.96
2019-03-05T09:10:34.375Z,54.93
2019-03-05T09:13:04.222Z,54.89
2019-03-05T09:15:32.289Z,54.90
2019-03-05T09:18:00.701Z,54.84
2019-03-05T09:20:30.484Z,54.84
2019-03-05T09:22:58.506Z,54.83
2019-03-05T09:25:26.559Z,54.83
2019-03-05T09:27:55.854Z,54.86
2019-03-05T09:30:24.049Z,54.84
2019-03-05T09:32:52.186Z,54.81
2019-03-05T09:35:20.260Z,54.78
2019-03-05T09:37:48.284Z,54.75
2019-03-05T09:40:19.004Z,54.73
2019-03-05T09:42:47.259Z,54.74
2019-03-05T09:45:16.709Z,54.70
2019-03-05T09:47:44.785Z,54.69
2019-03-05T09:50:14.910Z,54.67
2019-03-05T09:52:54.399Z,54.66
2019-03-05T09:55:18.105Z,54.64
2019-03-05T09:57:48.419Z,54.64
2019-03-05T10:00:18.265Z,54.61
2019-03-05T10:02:46.440Z,54.58
2019-03-05T10:05:15.354Z,54.55
2019-03-05T10:07:44.007Z,54.58
2019-03-05T10:10:16.061Z,54.63
2019-03-05T10:12:44.251Z,54.68
2019-03-05T10:15:15.932Z,54.68
2019-03-05T10:17:43.981Z,54.70
2019-03-05T10:20:15.635Z,54.69
2019-03-05T10:22:44.833Z,54.69
2019-03-05T10:25:15.817Z,54.69
2019-03-05T10:27:44.161Z,54.63
2019-03-05T10:30:25.412Z,54.63
2019-03-05T10:32:55.123Z,54.76
2019-03-05T10:35:25.418Z,54.84
2019-03-05T10:37:56.053Z,54.87
2019-03-05T10:40:27.447Z,54.91
2019-03-05T10:42:55.716Z,54.84
2019-03-05T10:45:24.921Z,54.83
2019-03-05T10:47:53.367Z,54.83
2019-03-05T10:50:24.392Z,54.83
2019-03-05T10:52:52.482Z,54.84
2019-03-05T10:55:26.278Z,54.86
2019-03-05T10:57:50.786Z,54.81
2019-03-05T11:00:28.598Z,54.76
2019-03-05T11:02:57.042Z,54.70
2019-03-05T11:05:27.925Z,54.63
2019-03-05T11:07:57.469Z,54.58
2019-03-05T11:10:28.145Z,54.59
2019-03-05T11:12:56.646Z,54.55
2019-03-05T11:15:27.642Z,54.55
2019-03-05T11:17:56.289Z,54.57
2019-03-05T11:20:25.043Z,54.56
2019-03-05T11:22:53.212Z,54.54
2019-03-05T11:25:22.796Z,54.59
2019-03-05T11:27:50.868Z,54.57
2019-03-05T11:30:35.369Z,54.52
2019-03-05T11:32:56.087Z,54.50
2019-03-05T11:35:26.845Z,54.44
2019-03-05T11:37:54.971Z,54.38
2019-03-05T11:40:23.295Z,54.33
2019-03-05T11:42:53.370Z,54.23
2019-03-05T11:45:24.274Z,54.22
2019-03-05T11:47:52.380Z,54.19
2019-03-05T11:50:21.023Z,54.22
2019-03-05T11:52:49.331Z,54.16
2019-03-05T11:55:19.704Z,54.12
2019-03-05T11:57:47.766Z,54.09
2019-03-05T12:00:23.707Z,54.05
2019-03-05T12:02:52.889Z,53.97
2019-03-05T12:05:22.072Z,54.00
2019-03-05T12:07:50.313Z,53.97
2019-03-05T12:10:19.306Z,53.97
2019-03-05T12:12:52.776Z,54.00
2019-03-05T12:15:21.009Z,54.00
2019-03-05T12:17:49.486Z,53.96
2019-03-05T12:20:17.548Z,53.96
2019-03-05T12:22:45.689Z,53.95
2019-03-05T12:25:15.413Z,53.94
2019-03-05T12:27:43.451Z,53.96
2019-03-05T12:30:18.268Z,53.93
2019-03-05T12:32:46.329Z,53.89
2019-03-05T12:35:14.507Z,53.89
2019-03-05T12:38:00.100Z,53.82
2019-03-05T12:40:28.380Z,53.75
2019-03-05T12:42:57.590Z,53.72
2019-03-05T12:45:25.651Z,53.67
2019-03-05T12:47:53.713Z,53.64
2019-03-05T12:50:22.200Z,53.66
2019-03-05T12:52:50.687Z,53.67
2019-03-05T12:55:20.565Z,53.66
2019-03-05T12:57:50.457Z,53.67
2019-03-05T13:00:20.405Z,53.65
2019-03-05T13:02:49.173Z,53.65
2019-03-05T13:05:17.869Z,53.67
2019-03-05T13:07:46.038Z,53.65
2019-03-05T13:10:19.800Z,53.64
2019-03-05T13:12:47.836Z,53.72
2019-03-05T13:15:22.718Z,53.84
2019-03-05T13:17:51.549Z,53.85
2019-03-05T13:20:22.498Z,53.89
2019-03-05T13:22:52.236Z,53.99
2019-03-05T13:25:24.219Z,54.06
2019-03-05T13:27:51.374Z,54.05
2019-03-05T13:30:22.099Z,54.00
2019-03-05T13:32:53.970Z,53.96
2019-03-05T13:35:25.329Z,53.89
2019-03-05T13:37:52.348Z,53.83
2019-03-05T13:40:25.257Z,53.76
2019-03-05T13:42:53.779Z,53.65
2019-03-05T13:45:23.880Z,53.54
2019-03-05T13:48:03.407Z,53.48
2019-03-05T13:51:19.607Z,53.40
2019-03-05T13:54:25.671Z,53.29
2019-03-05T13:58:16.844Z,53.20
2019-03-05T14:00:44.929Z,53.19
2019-03-05T14:03:43.745Z,53.13
2019-03-05T14:07:00.854Z,53.13
2019-03-05T14:09:27.476Z,53.09
2019-03-05T14:11:55.549Z,53.04
2019-03-05T14:14:28.868Z,53.00
2019-03-05T14:17:17.290Z,52.92
2019-03-05T14:19:45.528Z,52.85
2019-03-05T14:22:15.321Z,52.83
2019-03-05T14:24:43.330Z,52.80
2019-03-05T14:27:11.387Z,52.79
2019-03-05T14:29:39.515Z,52.76
2019-03-05T14:32:08.317Z,52.71
2019-03-05T14:34:36.515Z,52.62
2019-03-05T14:37:04.996Z,52.55
2019-03-05T14:39:34.687Z,52.55
2019-03-05T14:42:06.271Z,52.48
2019-03-05T14:44:39.785Z,52.48
2019-03-05T14:47:05.630Z,52.47
2019-03-05T14:49:34.414Z,52.44
2019-03-05T14:52:03.337Z,52.40
2019-03-05T14:54:31.470Z,52.33
2019-03-05T14:57:00.670Z,52.26
2019-03-05T14:59:29.118Z,52.23
2019-03-05T15:01:58.644Z,52.15
2019-03-05T15:04:26.700Z,52.05
2019-03-05T15:06:54.789Z,52.00
2019-03-05T15:09:22.851Z,51.91
2019-03-05T15:11:50.911Z,51.87
2019-03-05T15:14:19.484Z,51.80
2019-03-05T15:16:47.672Z,51.75
2019-03-05T15:19:21.313Z,51.72
2019-03-05T15:21:46.126Z,51.70
2019-03-05T15:24:14.313Z,51.67
2019-03-05T15:26:42.539Z,51.66
2019-03-05T15:29:10.636Z,51.64
2019-03-05T15:31:38.795Z,51.55
2019-03-05T15:34:07.617Z,51.52
2019-03-05T15:36:35.839Z,51.62
2019-03-05T15:39:05.333Z,51.70
2019-03-05T15:41:35.388Z,51.77
2019-03-05T15:44:03.777Z,51.80
2019-03-05T15:46:32.579Z,51.79
2019-03-05T15:49:01.041Z,51.82
2019-03-05T15:51:29.504Z,51.86
2019-03-05T15:53:58.410Z,51.89
2019-03-05T15:56:26.645Z,51.94
2019-03-05T15:58:54.953Z,52.00
2019-03-05T16:01:23.116Z,52.08
2019-03-05T16:03:52.557Z,52.16
2019-03-05T16:06:20.717Z,52.21
2019-03-05T16:08:49.110Z,52.27
2019-03-05T16:11:17.295Z,52.34
2019-03-05T16:13:47.430Z,52.40
2019-03-05T16:16:18.343Z,52.50
2019-03-05T16:18:45.743Z,52.59
2019-03-05T16:21:13.792Z,52.69
2019-03-05T16:23:41.872Z,52.71
2019-03-05T16:26:10.026Z,52.75
2019-03-05T16:28:39.302Z,52.76
2019-03-05T16:31:27.115Z,52.81
2019-03-05T16:34:02.017Z,52.85
2019-03-05T16:36:40.786Z,52.90
2019-03-05T16:39:42.233Z,52.99
2019-03-05T16:42:39.190Z,53.08
2019-03-05T16:45:23.480Z,53.18
2019-03-05T16:48:23.540Z,53.29
2019-03-05T16:51:09.214Z,53.45
2019-03-05T16:54:03.003Z,53.57
2019-03-05T16:56:46.956Z,53.65
2019-03-05T16:59:49.743Z,53.61
2019-03-05T17:02:40.737Z,53.58
2019-03-05T17:05:25.818Z,53.53
2019-03-05T17:08:19.089Z,53.53
2019-03-05T17:11:13.053Z,53.61
2019-03-05T17:13:41.428Z,53.65
2019-03-05T17:16:09.698Z,53.65
2019-03-05T17:18:38.616Z,53.69
2019-03-05T17:21:06.793Z,53.72
2019-03-05T17:23:37.606Z,53.78
2019-03-05T17:26:06.098Z,53.82
2019-03-05T17:28:35.273Z,53.83
2019-03-05T17:31:03.553Z,53.90
2019-03-05T17:33:33.015Z,53.97
2019-03-05T17:36:02.325Z,54.01
2019-03-05T17:38:30.896Z,54.07
2019-03-05T17:40:59.121Z,54.12
2019-03-05T17:43:27.249Z,54.15
2019-03-05T17:45:55.881Z,54.19
2019-03-05T17:48:24.467Z,54.24
2019-03-05T17:50:53.814Z,54.30
2019-03-05T17:53:23.136Z,54.34
2019-03-05T17:55:51.656Z,54.39
2019-03-05T17:58:20.106Z,54.42
2019-03-05T18:00:48.685Z,54.50
2019-03-05T18:03:16.988Z,54.65
2019-03-05T18:05:45.170Z,54.78
2019-03-05T18:08:13.635Z,54.91
2019-03-05T18:10:41.760Z,55.02
2019-03-05T18:13:10.065Z,55.08
2019-03-05T18:15:39.339Z,55.08
2019-03-05T18:18:07.428Z,55.10
2019-03-05T18:20:35.908Z,55.10
2019-03-05T18:23:04.130Z,55.12
2019-03-05T18:25:35.232Z,55.14
2019-03-05T18:28:03.595Z,55.15
2019-03-05T18:30:31.677Z,55.19
2019-03-05T18:33:00.007Z,55.21
2019-03-05T18:35:28.508Z,55.24
2019-03-05T18:37:56.689Z,55.26
2019-03-05T18:40:25.058Z,55.31
2019-03-05T18:42:53.240Z,55.39
2019-03-05T18:45:23.509Z,55.41
2019-03-05T18:47:51.633Z,55.47
2019-03-05T18:50:20.145Z,55.50
2019-03-05T18:52:49.643Z,55.57
2019-03-05T18:55:18.874Z,55.61
2019-03-05T18:57:47.107Z,55.64
2019-03-05T19:00:18.696Z,55.68
2019-03-05T19:02:46.799Z,55.71
2019-03-05T19:05:16.122Z,55.81
2019-03-05T19:07:46.858Z,55.87
2019-03-05T19:10:16.826Z,55.93
2019-03-05T19:12:44.864Z,55.98
2019-03-05T19:15:17.136Z,56.03
2019-03-05T19:17:47.093Z,56.06
2019-03-05T19:20:18.313Z,56.10
2019-03-05T19:22:47.351Z,56.15
2019-03-05T19:25:18.800Z,56.20
2019-03-05T19:27:48.652Z,56.23
2019-03-05T19:30:20.666Z,56.25
2019-03-05T19:32:50.264Z,56.24
2019-03-05T19:35:18.562Z,56.28
2019-03-05T19:37:47.658Z,56.30
2019-03-05T19:40:19.265Z,56.35
2019-03-05T19:42:47.721Z,56.39
2019-03-05T19:45:15.944Z,56.43
2019-03-05T19:47:44.337Z,56.46
2019-03-05T19:50:14.948Z,56.52
2019-03-05T19:52:43.413Z,56.56
2019-03-05T19:55:14.323Z,56.61
2019-03-05T19:57:42.375Z,56.63
2019-03-05T20:00:25.758Z,56.67
2019-03-05T20:02:54.332Z,56.71
2019-03-05T20:05:22.828Z,56.71
2019-03-05T20:07:50.794Z,56.74
2019-03-05T20:10:19.952Z,56.78
2019-03-05T20:12:49.113Z,56.81
2019-03-05T20:15:17.206Z,56.85
2019-03-05T20:17:45.907Z,56.86
2019-03-05T20:20:15.630Z,56.87
2019-03-05T20:22:44.225Z,56.89
2019-03-05T20:25:15.412Z,56.91
2019-03-05T20:27:43.562Z,56.93
2019-03-05T20:30:16.118Z,56.95
2019-03-05T20:32:46.310Z,56.95
2019-03-05T20:35:15.035Z,56.96
2019-03-05T20:37:43.753Z,57.00
2019-03-05T20:40:14.335Z,57.04
2019-03-05T20:42:43.091Z,57.08
2019-03-05T20:45:15.751Z,57.13
2019-03-05T20:47:43.919Z,57.18
2019-03-05T20:50:12.823Z,57.19
2019-03-05T20:52:40.994Z,57.22
2019-03-05T20:55:12.221Z,57.24
2019-03-05T20:57:40.522Z,57.27
2019-03-05T21:00:21.963Z,57.27
2019-03-05T21:02:51.545Z,57.31
2019-03-05T21:05:21.009Z,57.29
2019-03-05T21:07:49.051Z,57.32
2019-03-05T21:10:17.325Z,57.38
2019-03-05T21:12:47.492Z,57.39
2019-03-05T21:15:15.905Z,57.43
2019-03-05T21:17:45.343Z,57.47
2019-03-05T21:20:14.062Z,57.51
2019-03-05T21:22:43.484Z,57.58
2019-03-05T21:25:12.420Z,57.57
2019-03-05T21:27:41.449Z,57.63
2019-03-05T21:30:13.798Z,57.67
2019-03-05T21:32:42.389Z,57.69
2019-03-05T21:35:10.935Z,57.70
2019-03-05T21:37:40.948Z,57.70
2019-03-05T21:40:16.386Z,57.76
2019-03-05T21:42:44.900Z,57.82
2019-03-05T21:45:17.169Z,57.83
2019-03-05T21:47:45.459Z,57.85
2019-03-05T21:50:14.481Z,57.89
2019-03-05T21:52:42.548Z,57.94
2019-03-05T21:55:13.107Z,57.97
2019-03-05T21:57:41.640Z,57.98
2019-03-05T22:00:14.373Z,58.00
2019-03-05T22:02:44.326Z,58.01
2019-03-05T22:05:14.138Z,58.01
2019-03-05T22:07:42.393Z,58.01
2019-03-05T22:10:14.155Z,58.03
2019-03-05T22:12:43.402Z,58.06
2019-03-05T22:15:13.962Z,58.08
2019-03-05T22:17:42.077Z,58.11
2019-03-05T22:20:13.648Z,58.11
2019-03-05T22:22:41.697Z,58.12
2019-03-05T22:25:12.406Z,58.12
2019-03-05T22:27:40.861Z,58.12
2019-03-05T22:30:16.356Z,58.14
2019-03-05T22:32:44.695Z,58.16
2019-03-05T22:35:15.086Z,58.12
2019-03-05T22:37:43.237Z,58.15
2019-03-05T22:40:11.900Z,58.19
2019-03-05T22:42:40.095Z,58.22
2019-03-05T22:45:12.734Z,58.21
2019-03-05T22:47:40.807Z,58.24
2019-03-05T22:50:09.593Z,58.26
2019-03-05T22:52:38.967Z,58.30
2019-03-05T22:55:07.896Z,58.35
2019-03-05T22:57:37.128Z,58.36
2019-03-05T23:00:11.744Z,58.41
2019-03-05T23:02:40.459Z,58.41
2019-03-05T23:05:09.620Z,58.44
2019-03-05T23:07:39.957Z,58.47
2019-03-05T23:10:11.247Z,58.47
2019-03-05T23:12:39.642Z,58.49
2019-03-05T23:15:09.053Z,58.51
2019-03-05T23:17:37.974Z,58.52
2019-03-05T23:20:07.224Z,58.57
2019-03-05T23:22:35.514Z,58.58
2019-03-05T23:25:04.394Z,58.61
2019-03-05T23:27:35.839Z,58.60
2019-03-05T23:30:07.992Z,58.63
2019-03-05T23:32:37.570Z,58.64
2019-03-05T23:35:07.431Z,58.66
2019-03-05T23:37:36.957Z,58.65
2019-03-05T23:40:05.266Z,58.67
2019-03-05T23:42:33.638Z,58.70
2019-03-05T23:45:01.688Z,58.68
2019-03-05T23:47:30.109Z,58.71
2019-03-05T23:49:58.165Z,58.71
2019-03-05T23:52:26.351Z,58.71
2019-03-05T23:54:54.754Z,58.72
2019-03-05T23:57:23.186Z,58.74
2019-03-05T23:59:52.768Z,58.75
